Terminal Aerodrome Forecast
Issued by NWS St Louis, MO

Home | Current Version | Previous Version | Text Only | Print | Product List | Glossary On
Versions: 1 2 3 4 5 6 7 8 9 10 11 12 13 14 15 16 17 18 19 20 21 22
000
FTUS43 KLSX 252300
TAFCOU
TAF
KCOU 252339Z 2600/2624 VRB04KT P6SM SKC
     FM260900 10006KT 5SM BR SKC
      TEMPO 2611/2613 2SM BR SCT005
     FM261500 13010KT P6SM SCT020
     FM262100 15011KT P6SM FEW030=

USA.gov is the U.S. government's official web portal to all federal, state and local government web resources and services.